createdAt,value
2022-11-24T00:01:20.546Z,7.82
2022-11-24T00:03:56.238Z,7.82
2022-11-24T00:06:23.800Z,7.79
2022-11-24T00:08:50.466Z,7.76
2022-11-24T00:11:19.656Z,7.75
2022-11-24T00:13:46.197Z,7.68
2022-11-24T00:16:18.768Z,7.70
2022-11-24T00:18:47.910Z,7.65
2022-11-24T00:21:15.793Z,7.65
2022-11-24T00:23:42.581Z,7.59
2022-11-24T00:26:11.903Z,7.64
2022-11-24T00:28:39.736Z,7.63
2022-11-24T00:31:18.510Z,7.66
2022-11-24T00:33:46.628Z,7.66
2022-11-24T00:36:13.253Z,7.71
2022-11-24T00:38:39.888Z,7.73
2022-11-24T00:41:06.854Z,7.73
2022-11-24T00:43:33.383Z,7.67
2022-11-24T00:46:00.104Z,7.71
2022-11-24T00:48:26.891Z,7.71
2022-11-24T00:51:08.113Z,7.71
2022-11-24T00:53:35.137Z,7.70
2022-11-24T00:56:04.034Z,7.62
2022-11-24T00:58:30.704Z,7.55
2022-11-24T01:01:03.289Z,7.45
2022-11-24T01:03:29.877Z,7.48
2022-11-24T01:05:56.533Z,7.50
2022-11-24T01:08:23.026Z,7.39
2022-11-24T01:10:49.528Z,7.38
2022-11-24T01:13:16.067Z,7.40
2022-11-24T01:15:42.639Z,7.36
2022-11-24T01:18:09.862Z,7.42
2022-11-24T01:20:37.674Z,7.42
2022-11-24T01:23:04.166Z,7.45
2022-11-24T01:25:30.640Z,7.43
2022-11-24T01:27:57.146Z,7.43
2022-11-24T01:30:23.698Z,7.52
2022-11-24T01:32:50.206Z,7.54
2022-11-24T01:35:16.728Z,7.63
2022-11-24T01:37:43.203Z,7.55
2022-11-24T01:40:10.510Z,7.49
2022-11-24T01:42:40.636Z,7.55
2022-11-24T01:45:25.937Z,7.62
2022-11-24T01:47:52.555Z,7.69
2022-11-24T01:50:19.262Z,7.69
2022-11-24T01:52:51.592Z,7.77
2022-11-24T01:55:22.168Z,7.78
2022-11-24T01:58:13.311Z,7.84
2022-11-24T02:00:43.361Z,7.96
2022-11-24T02:03:22.995Z,8.14
2022-11-24T02:06:04.608Z,8.02
2022-11-24T02:08:39.844Z,8.15
2022-11-24T02:11:07.005Z,8.11
2022-11-24T02:13:37.358Z,8.17
2022-11-24T02:16:06.630Z,7.91
2022-11-24T02:18:33.525Z,8.10
2022-11-24T02:21:00.553Z,8.17
2022-11-24T02:23:48.505Z,8.20
2022-11-24T02:26:32.045Z,8.08
2022-11-24T02:28:59.219Z,8.15
2022-11-24T02:31:26.100Z,8.14
2022-11-24T02:33:52.897Z,8.08
2022-11-24T02:36:19.428Z,8.10
2022-11-24T02:38:45.931Z,8.08
2022-11-24T02:41:16.393Z,8.02
2022-11-24T02:43:47.249Z,8.01
2022-11-24T02:46:14.386Z,8.00
2022-11-24T02:48:40.953Z,8.05
2022-11-24T02:51:07.472Z,7.93
2022-11-24T02:53:34.100Z,7.80
2022-11-24T02:56:00.745Z,7.76
2022-11-24T02:58:27.335Z,7.76
2022-11-24T03:00:54.538Z,7.60
2022-11-24T03:03:21.893Z,7.50
2022-11-24T03:05:48.380Z,7.49
2022-11-24T03:08:14.874Z,7.46
2022-11-24T03:10:41.456Z,7.42
2022-11-24T03:13:08.306Z,7.50
2022-11-24T03:15:36.000Z,7.50
2022-11-24T03:18:03.045Z,7.48
2022-11-24T03:20:30.096Z,7.56
2022-11-24T03:22:56.749Z,7.50
2022-11-24T03:25:23.273Z,7.51
2022-11-24T03:27:49.770Z,7.48
2022-11-24T03:30:16.701Z,7.58
2022-11-24T03:32:43.319Z,7.51
2022-11-24T03:35:09.847Z,7.46
2022-11-24T03:37:36.445Z,7.46
2022-11-24T03:40:03.141Z,7.39
2022-11-24T03:42:29.662Z,7.35
2022-11-24T03:44:56.400Z,7.32
2022-11-24T03:47:22.913Z,7.23
2022-11-24T03:49:49.567Z,7.19
2022-11-24T03:52:16.036Z,7.16
2022-11-24T03:54:42.613Z,7.10
2022-11-24T03:57:09.371Z,6.99
2022-11-24T03:59:35.947Z,6.95
2022-11-24T04:02:02.669Z,6.85
2022-11-24T04:04:29.217Z,6.75
2022-11-24T04:06:55.901Z,6.74
2022-11-24T04:09:22.422Z,6.63
2022-11-24T04:12:07.281Z,6.57
2022-11-24T04:14:34.070Z,6.65
2022-11-24T04:17:00.819Z,6.59
2022-11-24T04:19:27.315Z,6.57
2022-11-24T04:21:54.267Z,6.45
2022-11-24T04:24:20.772Z,6.48
2022-11-24T04:26:47.287Z,6.45
2022-11-24T04:29:13.958Z,6.46
2022-11-24T04:31:40.476Z,6.42
2022-11-24T04:34:06.990Z,6.44
2022-11-24T04:36:33.663Z,6.41
2022-11-24T04:39:24.750Z,6.43
2022-11-24T04:41:48.208Z,6.45
2022-11-24T04:44:14.950Z,6.43
2022-11-24T04:46:41.594Z,6.39
2022-11-24T04:49:11.608Z,6.37
2022-11-24T04:51:42.632Z,6.45
2022-11-24T04:54:11.632Z,6.41
2022-11-24T04:56:39.212Z,6.48
2022-11-24T04:59:08.401Z,6.39
2022-11-24T05:01:35.337Z,6.48
2022-11-24T05:04:02.020Z,6.44
2022-11-24T05:06:28.676Z,6.46
2022-11-24T05:08:55.231Z,6.43
2022-11-24T05:11:21.849Z,6.51
2022-11-24T05:13:48.341Z,6.48
2022-11-24T05:16:14.945Z,6.42
2022-11-24T05:18:41.646Z,6.50
2022-11-24T05:21:08.233Z,6.54
2022-11-24T05:23:34.758Z,6.50
2022-11-24T05:26:02.123Z,6.60
2022-11-24T05:28:29.159Z,6.61
2022-11-24T05:31:00.229Z,6.62
2022-11-24T05:33:28.634Z,6.71
2022-11-24T05:35:55.353Z,6.64
2022-11-24T05:38:23.716Z,6.66
2022-11-24T05:40:50.203Z,6.67
2022-11-24T05:43:17.324Z,6.60
2022-11-24T05:45:44.540Z,6.66
2022-11-24T05:48:13.972Z,6.64
2022-11-24T05:50:40.923Z,6.67
2022-11-24T05:53:10.248Z,6.55
2022-11-24T05:55:37.707Z,6.63
2022-11-24T05:58:06.412Z,6.62
2022-11-24T06:00:34.952Z,6.63
2022-11-24T06:03:01.967Z,6.61
2022-11-24T06:05:29.408Z,6.55
2022-11-24T06:07:56.329Z,6.54
2022-11-24T06:10:25.973Z,6.50
2022-11-24T06:12:53.114Z,6.44
2022-11-24T06:15:19.660Z,6.50
2022-11-24T06:17:54.234Z,6.54
2022-11-24T06:20:20.720Z,6.53
2022-11-24T06:22:48.307Z,6.55
2022-11-24T06:25:16.236Z,6.63
2022-11-24T06:27:43.504Z,6.59
2022-11-24T06:30:10.873Z,6.53
2022-11-24T06:32:37.458Z,6.57
2022-11-24T06:35:04.877Z,6.57
2022-11-24T06:37:31.530Z,6.52
2022-11-24T06:39:58.122Z,6.54
2022-11-24T06:42:24.601Z,6.53
2022-11-24T06:44:51.182Z,6.48
2022-11-24T06:47:17.736Z,6.52
2022-11-24T06:49:44.317Z,6.49
2022-11-24T06:52:11.173Z,6.52
2022-11-24T06:54:37.793Z,6.45
2022-11-24T06:57:04.303Z,6.47
2022-11-24T06:59:30.850Z,6.48
2022-11-24T07:01:57.548Z,6.47
2022-11-24T07:04:24.081Z,6.58
2022-11-24T07:06:50.625Z,6.52
2022-11-24T07:09:17.184Z,6.53
2022-11-24T07:11:43.693Z,6.46
2022-11-24T07:14:10.557Z,6.48
2022-11-24T07:16:37.491Z,6.44
2022-11-24T07:19:04.551Z,6.47
2022-11-24T07:21:31.281Z,6.45
2022-11-24T07:23:58.637Z,6.35
2022-11-24T07:26:26.012Z,6.50
2022-11-24T07:28:52.824Z,6.37
2022-11-24T07:31:21.657Z,6.35
2022-11-24T07:33:49.929Z,6.34
2022-11-24T07:36:16.534Z,6.40
2022-11-24T07:38:43.092Z,6.40
2022-11-24T07:41:11.803Z,6.35
2022-11-24T07:43:39.427Z,6.38
2022-11-24T07:46:08.491Z,6.40
2022-11-24T07:48:35.141Z,6.43
2022-11-24T07:51:03.122Z,6.49
2022-11-24T07:53:29.744Z,6.51
2022-11-24T07:56:01.727Z,6.44
2022-11-24T07:58:32.739Z,6.52
2022-11-24T08:01:01.219Z,6.52
2022-11-24T08:03:28.018Z,6.54
2022-11-24T08:06:22.209Z,6.56
2022-11-24T08:08:42.433Z,6.61
2022-11-24T08:11:12.864Z,6.62
2022-11-24T08:13:39.940Z,6.53
2022-11-24T08:16:12.151Z,6.68
2022-11-24T08:18:39.639Z,6.67
2022-11-24T08:21:06.969Z,6.68
2022-11-24T08:23:34.279Z,6.66
2022-11-24T08:26:05.588Z,6.73
2022-11-24T08:28:33.404Z,6.78
2022-11-24T08:31:09.321Z,6.80
2022-11-24T08:33:36.042Z,6.79
2022-11-24T08:36:04.647Z,6.85
2022-11-24T08:38:31.242Z,6.78
2022-11-24T08:41:06.485Z,6.89
2022-11-24T08:43:33.192Z,6.87
2022-11-24T08:46:05.283Z,6.92
2022-11-24T08:48:32.986Z,6.99
2022-11-24T08:51:06.098Z,6.97
2022-11-24T08:53:32.773Z,6.99
2022-11-24T08:56:00.675Z,7.05
2022-11-24T08:58:29.201Z,7.05
2022-11-24T09:00:56.030Z,7.10
2022-11-24T09:03:22.650Z,7.15
2022-11-24T09:05:52.331Z,7.23
2022-11-24T09:08:19.428Z,7.25
2022-11-24T09:10:46.746Z,7.28
2022-11-24T09:13:13.276Z,7.33
2022-11-24T09:15:39.808Z,7.30
2022-11-24T09:18:06.382Z,7.42
2022-11-24T09:20:33.302Z,7.45
2022-11-24T09:22:59.968Z,7.48
2022-11-24T09:25:27.197Z,7.56
2022-11-24T09:27:54.580Z,7.62
2022-11-24T09:30:21.436Z,7.63
2022-11-24T09:32:48.053Z,7.63
2022-11-24T09:35:14.768Z,7.66
2022-11-24T09:37:43.413Z,7.75
2022-11-24T09:40:14.266Z,7.83
2022-11-24T09:43:11.852Z,7.87
2022-11-24T09:46:06.807Z,7.97
2022-11-24T09:48:40.708Z,8.01
2022-11-24T09:51:11.242Z,8.08
2022-11-24T09:54:09.209Z,8.10
2022-11-24T09:56:40.738Z,8.16
2022-11-24T09:59:20.300Z,8.16
2022-11-24T10:01:48.535Z,8.22
2022-11-24T10:04:18.265Z,8.27
2022-11-24T10:06:55.115Z,8.38
2022-11-24T10:09:34.642Z,8.34
2022-11-24T10:12:16.511Z,8.37
2022-11-24T10:14:59.094Z,8.45
2022-11-24T10:17:45.550Z,8.49
2022-11-24T10:20:30.862Z,8.66
2022-11-24T10:23:12.362Z,8.61
2022-11-24T10:25:50.431Z,8.78
2022-11-24T10:28:17.068Z,8.81
2022-11-24T10:30:43.840Z,8.87
2022-11-24T10:33:19.071Z,8.93
2022-11-24T10:35:55.658Z,8.83
2022-11-24T10:38:35.062Z,9.01
2022-11-24T10:41:05.324Z,9.05
2022-11-24T10:43:31.887Z,9.01
2022-11-24T10:46:26.369Z,9.06
2022-11-24T10:48:57.442Z,9.10
2022-11-24T10:51:42.830Z,9.19
2022-11-24T10:54:19.805Z,9.34
2022-11-24T10:56:47.846Z,9.23
2022-11-24T10:59:21.586Z,9.38
2022-11-24T11:01:48.515Z,9.29
2022-11-24T11:04:29.427Z,9.46
2022-11-24T11:07:23.606Z,9.49
2022-11-24T11:09:50.388Z,9.62
2022-11-24T11:12:44.770Z,9.57
2022-11-24T11:15:27.338Z,9.72
2022-11-24T11:17:59.001Z,9.67
2022-11-24T11:20:34.095Z,9.62
2022-11-24T11:23:12.823Z,9.69
2022-11-24T11:25:41.164Z,9.74
2022-11-24T11:28:27.292Z,9.78
2022-11-24T11:31:22.041Z,9.75
2022-11-24T11:34:03.641Z,9.81
2022-11-24T11:36:33.030Z,9.86
2022-11-24T11:39:00.083Z,9.98
2022-11-24T11:41:33.231Z,9.96
2022-11-24T11:44:35.478Z,10.11
2022-11-24T11:47:14.548Z,10.19
2022-11-24T11:49:41.148Z,10.04
2022-11-24T11:52:16.425Z,10.03
2022-11-24T11:55:01.317Z,10.07
2022-11-24T11:57:35.288Z,10.25
2022-11-24T12:00:14.866Z,10.30
2022-11-24T12:03:19.125Z,10.37
2022-11-24T12:06:10.023Z,10.23
2022-11-24T12:09:17.878Z,10.29
2022-11-24T12:11:39.829Z,10.24
2022-11-24T12:14:28.033Z,10.25
2022-11-24T12:17:07.123Z,10.11
2022-11-24T12:19:45.829Z,10.24
2022-11-24T12:22:49.882Z,10.45
2022-11-24T12:25:38.767Z,10.57
2022-11-24T12:28:38.052Z,10.40
2022-11-24T12:31:18.382Z,10.56
2022-11-24T12:34:22.139Z,10.38
2022-11-24T12:36:57.664Z,10.46
2022-11-24T12:39:42.751Z,10.62
2022-11-24T12:42:15.632Z,10.66
2022-11-24T12:44:55.262Z,10.66
2022-11-24T12:47:45.146Z,10.64
2022-11-24T12:50:24.679Z,10.88
2022-11-24T12:53:00.531Z,11.04
2022-11-24T12:55:29.107Z,10.77
2022-11-24T12:58:09.299Z,10.66
2022-11-24T13:01:02.591Z,10.79
2022-11-24T13:04:23.445Z,10.78
2022-11-24T13:06:53.066Z,10.52
2022-11-24T13:09:20.240Z,10.50
2022-11-24T13:11:57.884Z,10.50
2022-11-24T13:14:34.684Z,10.55
2022-11-24T13:17:30.389Z,10.49
2022-11-24T13:20:30.719Z,10.75
2022-11-24T13:23:02.400Z,10.77
2022-11-24T13:25:31.112Z,10.95
2022-11-24T13:28:01.646Z,11.05
2022-11-24T13:30:34.407Z,10.92
2022-11-24T13:33:16.888Z,10.82
2022-11-24T13:36:02.168Z,10.65
2022-11-24T13:38:52.560Z,10.64
2022-11-24T13:41:34.283Z,10.64
2022-11-24T13:44:16.342Z,10.43
2022-11-24T13:47:06.199Z,10.34
2022-11-24T13:49:46.560Z,10.41
2022-11-24T13:52:34.783Z,10.25
2022-11-24T13:55:06.066Z,10.18
2022-11-24T13:57:43.031Z,10.16
2022-11-24T14:00:37.385Z,10.32
2022-11-24T14:03:17.603Z,10.25
2022-11-24T14:05:52.701Z,10.30
2022-11-24T14:08:26.575Z,10.27
2022-11-24T14:10:56.604Z,10.34
2022-11-24T14:13:26.107Z,10.31
2022-11-24T14:16:15.121Z,10.27
2022-11-24T14:18:47.337Z,10.26
2022-11-24T14:21:20.149Z,10.20
2022-11-24T14:24:20.318Z,10.19
2022-11-24T14:26:47.637Z,10.24
2022-11-24T14:29:22.269Z,10.21
2022-11-24T14:31:59.993Z,9.98
2022-11-24T14:34:29.474Z,10.03
2022-11-24T14:36:57.364Z,10.03
2022-11-24T14:39:25.860Z,10.03
2022-11-24T14:42:04.887Z,10.04
2022-11-24T14:44:56.373Z,9.89
2022-11-24T14:47:32.436Z,9.75
2022-11-24T14:50:12.064Z,9.77
2022-11-24T14:52:54.091Z,9.69
2022-11-24T14:55:39.337Z,9.64
2022-11-24T14:58:27.763Z,9.66
2022-11-24T15:01:19.337Z,9.56
2022-11-24T15:03:46.585Z,9.59
2022-11-24T15:06:19.768Z,9.52
2022-11-24T15:08:49.171Z,9.52
2022-11-24T15:11:16.074Z,9.53
2022-11-24T15:13:54.069Z,9.58
2022-11-24T15:16:24.490Z,9.43
2022-11-24T15:19:02.218Z,9.34
2022-11-24T15:21:37.317Z,9.41
2022-11-24T15:24:18.076Z,9.24
2022-11-24T15:26:45.820Z,9.30
2022-11-24T15:29:13.210Z,9.24
2022-11-24T15:31:40.884Z,9.18
2022-11-24T15:34:09.611Z,9.08
2022-11-24T15:36:36.176Z,9.10
2022-11-24T15:39:02.895Z,9.06
2022-11-24T15:41:33.541Z,9.05
2022-11-24T15:44:00.354Z,9.10
2022-11-24T15:46:37.694Z,9.01
2022-11-24T15:49:05.262Z,8.94
2022-11-24T15:51:32.185Z,8.87
2022-11-24T15:54:01.165Z,8.89
2022-11-24T15:56:33.884Z,8.93
2022-11-24T15:59:01.637Z,8.83
2022-11-24T16:01:31.613Z,8.84
2022-11-24T16:03:58.421Z,8.84
2022-11-24T16:06:25.700Z,8.77
2022-11-24T16:08:53.449Z,8.76
2022-11-24T16:11:20.983Z,8.73
2022-11-24T16:13:52.392Z,8.78
2022-11-24T16:16:20.700Z,8.80
2022-11-24T16:18:47.399Z,8.80
2022-11-24T16:21:13.989Z,8.76
2022-11-24T16:23:40.892Z,8.91
2022-11-24T16:26:07.825Z,8.74
2022-11-24T16:28:34.363Z,8.76
2022-11-24T16:31:01.050Z,8.66
2022-11-24T16:33:29.746Z,8.67
2022-11-24T16:35:56.263Z,8.85
2022-11-24T16:38:22.878Z,8.69
2022-11-24T16:40:56.435Z,8.66
2022-11-24T16:43:24.703Z,8.76
2022-11-24T16:46:18.932Z,8.68
2022-11-24T16:48:47.026Z,8.65
2022-11-24T16:51:14.360Z,8.72
2022-11-24T16:53:41.549Z,8.75
2022-11-24T16:56:09.107Z,8.70
2022-11-24T16:58:40.876Z,8.59
2022-11-24T17:01:10.639Z,8.63
2022-11-24T17:03:38.608Z,8.70
2022-11-24T17:06:13.152Z,8.69
2022-11-24T17:08:41.252Z,8.73
2022-11-24T17:11:16.679Z,8.63
2022-11-24T17:13:45.430Z,8.64
2022-11-24T17:16:14.668Z,8.68
2022-11-24T17:18:41.718Z,8.55
2022-11-24T17:21:13.224Z,8.52
2022-11-24T17:23:40.201Z,8.53
2022-11-24T17:26:10.482Z,8.46
2022-11-24T17:28:37.885Z,8.45
2022-11-24T17:31:19.773Z,8.43
2022-11-24T17:33:46.461Z,8.52
2022-11-24T17:36:13.062Z,8.47
2022-11-24T17:38:39.661Z,8.41
2022-11-24T17:41:06.213Z,8.33
2022-11-24T17:43:33.275Z,8.21
2022-11-24T17:46:02.032Z,8.21
2022-11-24T17:48:28.771Z,8.34
2022-11-24T17:51:07.880Z,8.28
2022-11-24T17:53:39.549Z,8.26
2022-11-24T17:56:13.016Z,8.30
2022-11-24T17:58:42.887Z,8.38
2022-11-24T18:01:11.098Z,8.24
2022-11-24T18:03:39.666Z,8.28
2022-11-24T18:06:08.120Z,8.22
2022-11-24T18:08:36.297Z,8.17
2022-11-24T18:11:09.701Z,8.12
2022-11-24T18:16:24.423Z,8.08
2022-11-24T18:19:07.404Z,8.11
2022-11-24T18:21:34.773Z,8.03
2022-11-24T18:24:01.305Z,8.06
2022-11-24T18:26:27.823Z,7.99
2022-11-24T18:28:54.506Z,8.09
2022-11-24T18:31:22.521Z,8.14
2022-11-24T18:33:49.082Z,8.08
2022-11-24T18:36:18.170Z,8.13
2022-11-24T18:38:45.211Z,7.98
2022-11-24T18:41:13.574Z,8.04
2022-11-24T18:43:40.547Z,8.04
2022-11-24T18:46:09.975Z,8.03
2022-11-24T18:48:36.651Z,8.02
2022-11-24T18:51:03.362Z,7.93
2022-11-24T18:53:30.099Z,7.95
2022-11-24T18:55:58.600Z,7.82
2022-11-24T18:58:28.715Z,7.85
2022-11-24T19:01:04.873Z,7.79
2022-11-24T19:03:31.533Z,7.78
2022-11-24T19:06:02.332Z,7.85
2022-11-24T19:08:28.864Z,7.84
2022-11-24T19:10:55.502Z,7.82
2022-11-24T19:13:22.058Z,7.77
2022-11-24T19:15:49.613Z,7.79
2022-11-24T19:18:16.434Z,7.73
2022-11-24T19:20:43.247Z,7.68
2022-11-24T19:23:09.801Z,7.77
2022-11-24T19:25:36.346Z,7.61
2022-11-24T19:28:03.443Z,7.62
2022-11-24T19:30:30.225Z,7.58
2022-11-24T19:32:57.545Z,7.62
2022-11-24T19:35:24.188Z,7.63
2022-11-24T19:37:51.311Z,7.59
2022-11-24T19:40:18.549Z,7.75
2022-11-24T19:42:45.151Z,7.79
2022-11-24T19:45:11.678Z,7.72
2022-11-24T19:47:38.668Z,7.84
2022-11-24T19:50:10.148Z,7.75
2022-11-24T19:52:37.102Z,7.74
2022-11-24T19:55:03.839Z,7.84
2022-11-24T19:57:30.365Z,7.83
2022-11-24T19:59:56.873Z,7.89
2022-11-24T20:02:23.479Z,7.81
2022-11-24T20:04:50.169Z,7.92
2022-11-24T20:07:16.857Z,7.91
2022-11-24T20:09:43.472Z,8.00
2022-11-24T20:12:10.226Z,8.01
2022-11-24T20:14:37.313Z,8.07
2022-11-24T20:17:06.617Z,8.06
2022-11-24T20:19:33.219Z,8.07
2022-11-24T20:22:00.268Z,8.06
2022-11-24T20:24:26.838Z,8.12
2022-11-24T20:26:58.917Z,8.07
2022-11-24T20:29:26.064Z,8.11
2022-11-24T20:31:54.513Z,8.16
2022-11-24T20:34:21.990Z,8.14
2022-11-24T20:36:48.957Z,8.26
2022-11-24T20:39:18.149Z,8.45
2022-11-24T20:41:45.229Z,8.40
2022-11-24T20:44:15.442Z,8.33
2022-11-24T20:46:43.275Z,8.32
2022-11-24T20:49:14.471Z,8.37
2022-11-24T20:51:46.941Z,8.30
2022-11-24T20:54:14.909Z,8.36
2022-11-24T20:56:43.878Z,8.41
2022-11-24T20:59:13.895Z,8.29
2022-11-24T21:01:44.171Z,8.33
2022-11-24T21:04:14.316Z,8.37
2022-11-24T21:06:41.061Z,8.21
2022-11-24T21:09:09.022Z,8.36
2022-11-24T21:11:37.092Z,8.34
2022-11-24T21:14:03.940Z,8.40
2022-11-24T21:16:32.605Z,8.26
2022-11-24T21:19:01.528Z,8.33
2022-11-24T21:21:33.971Z,8.33
2022-11-24T21:24:15.055Z,8.37
2022-11-24T21:26:42.896Z,8.37
2022-11-24T21:29:13.106Z,8.42
2022-11-24T21:31:40.080Z,8.46
2022-11-24T21:34:08.057Z,8.44
2022-11-24T21:36:35.625Z,8.47
2022-11-24T21:39:03.757Z,8.47
2022-11-24T21:41:33.064Z,8.52
2022-11-24T21:43:59.743Z,8.48
2022-11-24T21:46:28.108Z,8.52
2022-11-24T21:48:54.648Z,8.58
2022-11-24T21:51:21.501Z,8.62
2022-11-24T21:53:48.903Z,8.59
2022-11-24T21:56:18.073Z,8.47
2022-11-24T21:58:53.152Z,8.43
2022-11-24T22:01:21.877Z,8.59
2022-11-24T22:03:48.616Z,8.51
2022-11-24T22:06:16.710Z,8.43
2022-11-24T22:08:43.695Z,8.47
2022-11-24T22:11:16.725Z,8.55
2022-11-24T22:13:44.361Z,8.40
2022-11-24T22:16:13.663Z,8.32
2022-11-24T22:18:41.882Z,8.34
2022-11-24T22:21:11.983Z,8.31
2022-11-24T22:23:38.873Z,8.28
2022-11-24T22:26:08.084Z,8.24
2022-11-24T22:28:35.930Z,8.15
2022-11-24T22:31:06.966Z,8.20
2022-11-24T22:33:33.984Z,8.18
2022-11-24T22:36:01.792Z,8.09
2022-11-24T22:38:29.787Z,8.13
2022-11-24T22:41:01.418Z,7.93
2022-11-24T22:43:29.849Z,8.01
2022-11-24T22:45:56.443Z,8.07
2022-11-24T22:48:23.014Z,8.07
2022-11-24T22:50:49.660Z,8.03
2022-11-24T22:53:16.426Z,8.02
2022-11-24T22:55:43.015Z,8.09
2022-11-24T22:58:09.679Z,8.01
2022-11-24T23:00:36.240Z,8.06
2022-11-24T23:03:02.790Z,8.02
2022-11-24T23:05:29.404Z,8.02
2022-11-24T23:07:56.125Z,7.96
2022-11-24T23:10:23.245Z,8.02
2022-11-24T23:12:50.065Z,7.82
2022-11-24T23:15:16.780Z,7.87
2022-11-24T23:17:43.364Z,7.89
2022-11-24T23:20:10.607Z,7.84
2022-11-24T23:22:37.263Z,7.87
2022-11-24T23:25:03.990Z,7.85
2022-11-24T23:27:30.485Z,7.85
2022-11-24T23:29:56.996Z,7.81
2022-11-24T23:32:23.598Z,7.90
2022-11-24T23:34:50.153Z,7.87
2022-11-24T23:37:16.806Z,7.84
2022-11-24T23:39:43.710Z,7.90
2022-11-24T23:42:10.180Z,7.94
2022-11-24T23:44:36.984Z,7.90
2022-11-24T23:47:03.737Z,8.09
2022-11-24T23:49:30.500Z,7.82
2022-11-24T23:51:57.370Z,7.91
2022-11-24T23:54:23.897Z,7.93
2022-11-24T23:56:50.573Z,8.03
2022-11-24T23:59:18.877Z,7.94
